sensor_id;sensor_type;location;lat;lon;timestamp;pressure;altitude;pressure_sealevel;temperature;humidity
80333;BME280;69652;51.864;-2.246;2023-11-21T00:01:40;101567.72;;;11.02;85.49
80333;BME280;69652;51.864;-2.246;2023-11-21T00:04:05;101568.81;;;11.01;86.37
80333;BME280;69652;51.864;-2.246;2023-11-21T00:06:32;101573.44;;;11.01;85.97
80333;BME280;69652;51.864;-2.246;2023-11-21T00:08:58;101569.38;;;10.98;86.44
80333;BME280;69652;51.864;-2.246;2023-11-21T00:11:23;101579.75;;;10.96;86.45
80333;BME280;69652;51.864;-2.246;2023-11-21T00:13:50;101574.88;;;10.93;87.26
80333;BME280;69652;51.864;-2.246;2023-11-21T00:16:15;101585.75;;;10.93;87.40
80333;BME280;69652;51.864;-2.246;2023-11-21T00:18:41;101589.00;;;10.90;87.65
80333;BME280;69652;51.864;-2.246;2023-11-21T00:21:08;101584.94;;;10.88;86.96
80333;BME280;69652;51.864;-2.246;2023-11-21T00:23:34;101591.19;;;10.88;87.72
80333;BME280;69652;51.864;-2.246;2023-11-21T00:26:00;101599.94;;;10.85;87.57
80333;BME280;69652;51.864;-2.246;2023-11-21T00:28:26;101606.97;;;10.86;88.33
80333;BME280;69652;51.864;-2.246;2023-11-21T00:30:52;101604.03;;;10.82;89.03
80333;BME280;69652;51.864;-2.246;2023-11-21T00:33:17;101604.03;;;10.82;89.84
80333;BME280;69652;51.864;-2.246;2023-11-21T00:35:42;101622.78;;;10.79;88.48
80333;BME280;69652;51.864;-2.246;2023-11-21T00:38:08;101620.31;;;10.82;89.16
80333;BME280;69652;51.864;-2.246;2023-11-21T00:40:34;101624.94;;;10.77;89.52
80333;BME280;69652;51.864;-2.246;2023-11-21T00:42:59;101626.31;;;10.74;90.04
80333;BME280;69652;51.864;-2.246;2023-11-21T00:45:24;101626.63;;;10.73;90.92
80333;BME280;69652;51.864;-2.246;2023-11-21T00:47:50;101629.34;;;10.73;90.96
80333;BME280;69652;51.864;-2.246;2023-11-21T00:50:16;101638.59;;;10.72;91.26
80333;BME280;69652;51.864;-2.246;2023-11-21T00:52:41;101635.06;;;10.71;90.24
80333;BME280;69652;51.864;-2.246;2023-11-21T00:55:07;101627.47;;;10.68;89.35
80333;BME280;69652;51.864;-2.246;2023-11-21T00:57:34;101635.34;;;10.70;89.76
80333;BME280;69652;51.864;-2.246;2023-11-21T01:00:00;101635.63;;;10.68;90.31
80333;BME280;69652;51.864;-2.246;2023-11-21T01:02:25;101640.75;;;10.70;90.32
80333;BME280;69652;51.864;-2.246;2023-11-21T01:04:51;101640.75;;;10.70;90.47
80333;BME280;69652;51.864;-2.246;2023-11-21T01:07:16;101648.09;;;10.69;90.52
80333;BME280;69652;51.864;-2.246;2023-11-21T01:09:46;101646.19;;;10.70;91.12
80333;BME280;69652;51.864;-2.246;2023-11-21T01:12:11;101655.44;;;10.69;90.78
80333;BME280;69652;51.864;-2.246;2023-11-21T01:14:37;101653.53;;;10.69;91.11
80333;BME280;69652;51.864;-2.246;2023-11-21T01:17:02;101663.28;;;10.70;91.30
80333;BME280;69652;51.864;-2.246;2023-11-21T01:19:29;101661.66;;;10.69;91.56
80333;BME280;69652;51.864;-2.246;2023-11-21T01:21:55;101677.97;;;10.69;91.41
80333;BME280;69652;51.864;-2.246;2023-11-21T01:24:20;101673.63;;;10.68;90.82
80333;BME280;69652;51.864;-2.246;2023-11-21T01:26:46;101676.63;;;10.67;91.32
80333;BME280;69652;51.864;-2.246;2023-11-21T01:29:12;101689.63;;;10.70;91.09
80333;BME280;69652;51.864;-2.246;2023-11-21T01:31:38;101686.91;;;10.70;91.01
80333;BME280;69652;51.864;-2.246;2023-11-21T01:34:03;101694.78;;;10.71;91.08
80333;BME280;69652;51.864;-2.246;2023-11-21T01:36:31;101706.47;;;10.72;90.99
80333;BME280;69652;51.864;-2.246;2023-11-21T01:38:57;101715.13;;;10.74;90.49
80333;BME280;69652;51.864;-2.246;2023-11-21T01:41:27;101712.19;;;10.70;90.51
80333;BME280;69652;51.864;-2.246;2023-11-21T01:43:56;101723.00;;;10.75;90.30
80333;BME280;69652;51.864;-2.246;2023-11-21T01:46:22;101723.53;;;10.77;90.26
80333;BME280;69652;51.864;-2.246;2023-11-21T01:48:49;101729.78;;;10.78;90.98
80333;BME280;69652;51.864;-2.246;2023-11-21T01:51:15;101730.59;;;10.78;90.40
80333;BME280;69652;51.864;-2.246;2023-11-21T01:53:40;101739.81;;;10.77;90.31
80333;BME280;69652;51.864;-2.246;2023-11-21T01:56:07;101745.25;;;10.77;90.37
80333;BME280;69652;51.864;-2.246;2023-11-21T01:58:33;101741.72;;;10.77;90.86
80333;BME280;69652;51.864;-2.246;2023-11-21T02:00:59;101746.06;;;10.78;90.07
80333;BME280;69652;51.864;-2.246;2023-11-21T02:03:25;101751.50;;;10.78;90.39
80333;BME280;69652;51.864;-2.246;2023-11-21T02:05:52;101764.53;;;10.76;90.22
80333;BME280;69652;51.864;-2.246;2023-11-21T02:08:19;101765.34;;;10.76;90.71
80333;BME280;69652;51.864;-2.246;2023-11-21T02:10:44;101768.06;;;10.76;90.12
80333;BME280;69652;51.864;-2.246;2023-11-21T02:13:10;101768.88;;;10.77;90.14
80333;BME280;69652;51.864;-2.246;2023-11-21T02:15:36;101772.41;;;10.77;89.94
80333;BME280;69652;51.864;-2.246;2023-11-21T02:18:04;101768.59;;;10.78;90.00
80333;BME280;69652;51.864;-2.246;2023-11-21T02:20:31;101775.38;;;10.81;90.18
80333;BME280;69652;51.864;-2.246;2023-11-21T02:23:00;101776.75;;;10.83;90.31
80333;BME280;69652;51.864;-2.246;2023-11-21T02:25:26;101773.50;;;10.81;90.44
80333;BME280;69652;51.864;-2.246;2023-11-21T02:27:53;101776.75;;;10.83;90.43
80333;BME280;69652;51.864;-2.246;2023-11-21T02:30:20;101778.38;;;10.84;90.11
80333;BME280;69652;51.864;-2.246;2023-11-21T02:32:47;101784.06;;;10.83;90.09
80333;BME280;69652;51.864;-2.246;2023-11-21T02:35:13;101784.63;;;10.85;89.95
80333;BME280;69652;51.864;-2.246;2023-11-21T02:37:39;101784.63;;;10.85;90.40
80333;BME280;69652;51.864;-2.246;2023-11-21T02:40:08;101780.78;;;10.86;90.18
80333;BME280;69652;51.864;-2.246;2023-11-21T02:42:35;101786.22;;;10.86;89.54
80333;BME280;69652;51.864;-2.246;2023-11-21T02:45:00;101790.56;;;10.87;89.27
80333;BME280;69652;51.864;-2.246;2023-11-21T02:47:26;101798.69;;;10.87;89.71
80333;BME280;69652;51.864;-2.246;2023-11-21T02:49:51;101805.75;;;10.88;89.49
80333;BME280;69652;51.864;-2.246;2023-11-21T02:52:18;101804.94;;;10.88;88.91
80333;BME280;69652;51.864;-2.246;2023-11-21T02:54:44;101804.13;;;10.87;88.76
80333;BME280;69652;51.864;-2.246;2023-11-21T02:57:10;101806.31;;;10.90;89.52
80333;BME280;69652;51.864;-2.246;2023-11-21T02:59:35;101813.63;;;10.90;89.15
80333;BME280;69652;51.864;-2.246;2023-11-21T03:02:01;101812.00;;;10.89;88.51
80333;BME280;69652;51.864;-2.246;2023-11-21T03:04:26;101817.97;;;10.91;88.50
80333;BME280;69652;51.864;-2.246;2023-11-21T03:06:51;101821.50;;;10.91;88.50
80333;BME280;69652;51.864;-2.246;2023-11-21T03:09:17;101831.28;;;10.87;88.81
80333;BME280;69652;51.864;-2.246;2023-11-21T03:11:42;101835.69;;;10.83;89.09
80333;BME280;69652;51.864;-2.246;2023-11-21T03:14:08;101843.56;;;10.79;89.21
80333;BME280;69652;51.864;-2.246;2023-11-21T03:16:33;101843.56;;;10.74;89.01
80333;BME280;69652;51.864;-2.246;2023-11-21T03:18:59;101848.19;;;10.74;88.78
80333;BME280;69652;51.864;-2.246;2023-11-21T03:21:24;101848.75;;;10.71;88.33
80333;BME280;69652;51.864;-2.246;2023-11-21T03:23:51;101837.34;;;10.69;88.46
80333;BME280;69652;51.864;-2.246;2023-11-21T03:26:17;101856.34;;;10.69;88.00
80333;BME280;69652;51.864;-2.246;2023-11-21T03:28:43;101860.97;;;10.68;88.12
80333;BME280;69652;51.864;-2.246;2023-11-21T03:31:08;101864.78;;;10.67;87.07
80333;BME280;69652;51.864;-2.246;2023-11-21T03:33:37;101862.34;;;10.66;87.10
80333;BME280;69652;51.864;-2.246;2023-11-21T03:36:02;101872.38;;;10.65;86.36
80333;BME280;69652;51.864;-2.246;2023-11-21T03:38:29;101893.00;;;10.66;86.54
80333;BME280;69652;51.864;-2.246;2023-11-21T03:40:54;101881.63;;;10.64;85.57
80333;BME280;69652;51.864;-2.246;2023-11-21T03:43:20;101886.78;;;10.66;85.07
80333;BME280;69652;51.864;-2.246;2023-11-21T03:45:45;101888.66;;;10.65;84.82
80333;BME280;69652;51.864;-2.246;2023-11-21T03:48:12;101891.66;;;10.64;85.11
80333;BME280;69652;51.864;-2.246;2023-11-21T03:50:38;101896.00;;;10.65;84.87
80333;BME280;69652;51.864;-2.246;2023-11-21T03:53:04;101910.41;;;10.65;85.23
80333;BME280;69652;51.864;-2.246;2023-11-21T03:55:29;101912.88;;;10.62;84.79
80333;BME280;69652;51.864;-2.246;2023-11-21T03:57:56;101915.56;;;10.62;84.59
80333;BME280;69652;51.864;-2.246;2023-11-21T04:00:22;101916.13;;;10.59;83.57
80333;BME280;69652;51.864;-2.246;2023-11-21T04:02:48;101914.75;;;10.56;83.22
80333;BME280;69652;51.864;-2.246;2023-11-21T04:05:13;101914.75;;;10.56;83.29
80333;BME280;69652;51.864;-2.246;2023-11-21T04:07:39;101925.63;;;10.56;83.00
80333;BME280;69652;51.864;-2.246;2023-11-21T04:10:06;101930.22;;;10.56;82.30
80333;BME280;69652;51.864;-2.246;2023-11-21T04:12:34;101945.97;;;10.54;81.81
80333;BME280;69652;51.864;-2.246;2023-11-21T04:14:59;101941.09;;;10.50;82.43
80333;BME280;69652;51.864;-2.246;2023-11-21T04:17:25;101940.03;;;10.46;80.32
80333;BME280;69652;51.864;-2.246;2023-11-21T04:19:50;101952.22;;;10.44;79.27
80333;BME280;69652;51.864;-2.246;2023-11-21T04:22:16;101957.66;;;10.44;79.47
80333;BME280;69652;51.864;-2.246;2023-11-21T04:24:41;101960.91;;;10.46;79.68
80333;BME280;69652;51.864;-2.246;2023-11-21T04:27:07;101963.91;;;10.44;78.86
80333;BME280;69652;51.864;-2.246;2023-11-21T04:29:33;101977.22;;;10.46;79.31
80333;BME280;69652;51.864;-2.246;2023-11-21T04:31:58;101979.09;;;10.45;79.04
80333;BME280;69652;51.864;-2.246;2023-11-21T04:34:24;101977.75;;;10.43;79.19
80333;BME280;69652;51.864;-2.246;2023-11-21T04:36:50;101975.28;;;10.41;81.06
80333;BME280;69652;51.864;-2.246;2023-11-21T04:39:15;101985.59;;;10.39;79.00
80333;BME280;69652;51.864;-2.246;2023-11-21T04:41:41;101980.47;;;10.38;79.41
80333;BME280;69652;51.864;-2.246;2023-11-21T04:44:06;101988.63;;;10.38;78.58
80333;BME280;69652;51.864;-2.246;2023-11-21T04:46:32;101991.31;;;10.38;78.89
80333;BME280;69652;51.864;-2.246;2023-11-21T04:48:58;101996.22;;;10.36;77.69
80333;BME280;69652;51.864;-2.246;2023-11-21T04:51:23;102005.44;;;10.35;78.97
80333;BME280;69652;51.864;-2.246;2023-11-21T04:53:49;102003.53;;;10.35;78.63
80333;BME280;69652;51.864;-2.246;2023-11-21T04:56:15;102007.06;;;10.36;79.42
80333;BME280;69652;51.864;-2.246;2023-11-21T04:58:41;102009.78;;;10.36;78.93
80333;BME280;69652;51.864;-2.246;2023-11-21T05:01:09;102023.88;;;10.33;79.18
80333;BME280;69652;51.864;-2.246;2023-11-21T05:03:35;102027.41;;;10.33;78.02
80333;BME280;69652;51.864;-2.246;2023-11-21T05:06:00;102019.53;;;10.32;78.44
80333;BME280;69652;51.864;-2.246;2023-11-21T05:08:26;102033.91;;;10.32;78.39
80333;BME280;69652;51.864;-2.246;2023-11-21T05:10:52;102039.59;;;10.31;78.21
80333;BME280;69652;51.864;-2.246;2023-11-21T05:13:19;102052.09;;;10.32;80.23
80333;BME280;69652;51.864;-2.246;2023-11-21T05:15:45;102050.72;;;10.29;79.40
80333;BME280;69652;51.864;-2.246;2023-11-21T05:18:11;102056.97;;;10.25;77.40
80333;BME280;69652;51.864;-2.246;2023-11-21T05:20:39;102053.19;;;10.26;77.09
80333;BME280;69652;51.864;-2.246;2023-11-21T05:23:06;102065.94;;;10.25;77.32
80333;BME280;69652;51.864;-2.246;2023-11-21T05:25:32;102055.09;;;10.25;78.05
80333;BME280;69652;51.864;-2.246;2023-11-21T05:27:57;102060.78;;;10.24;78.39
80333;BME280;69652;51.864;-2.246;2023-11-21T05:30:26;102059.41;;;10.21;76.57
80333;BME280;69652;51.864;-2.246;2023-11-21T05:32:52;102068.38;;;10.22;75.83
80333;BME280;69652;51.864;-2.246;2023-11-21T05:35:18;102071.63;;;10.24;76.11
80333;BME280;69652;51.864;-2.246;2023-11-21T05:37:45;102074.59;;;10.22;78.17
80333;BME280;69652;51.864;-2.246;2023-11-21T05:40:11;102073.25;;;10.20;76.41
80333;BME280;69652;51.864;-2.246;2023-11-21T05:42:39;102075.94;;;10.20;77.62
80333;BME280;69652;51.864;-2.246;2023-11-21T05:45:06;102074.06;;;10.20;76.85
80333;BME280;69652;51.864;-2.246;2023-11-21T05:47:37;102079.16;;;10.17;77.16
80333;BME280;69652;51.864;-2.246;2023-11-21T05:50:04;102080.78;;;10.18;78.53
80333;BME280;69652;51.864;-2.246;2023-11-21T05:52:31;102088.69;;;10.19;77.10
80333;BME280;69652;51.864;-2.246;2023-11-21T05:54:57;102100.63;;;10.18;76.83
80333;BME280;69652;51.864;-2.246;2023-11-21T05:57:23;102098.16;;;10.17;77.19
80333;BME280;69652;51.864;-2.246;2023-11-21T05:59:48;102097.34;;;10.16;76.91
80333;BME280;69652;51.864;-2.246;2023-11-21T06:02:14;102099.78;;;10.18;77.77
80333;BME280;69652;51.864;-2.246;2023-11-21T06:04:39;102099.78;;;10.18;77.88
80333;BME280;69652;51.864;-2.246;2023-11-21T06:07:05;102116.63;;;10.14;78.38
80333;BME280;69652;51.864;-2.246;2023-11-21T06:09:30;102101.94;;;10.15;77.66
80333;BME280;69652;51.864;-2.246;2023-11-21T06:11:56;102109.25;;;10.15;78.10
80333;BME280;69652;51.864;-2.246;2023-11-21T06:14:21;102116.63;;;10.14;77.32
80333;BME280;69652;51.864;-2.246;2023-11-21T06:16:47;102109.56;;;10.13;78.02
80333;BME280;69652;51.864;-2.246;2023-11-21T06:19:12;102116.06;;;10.12;77.66
80333;BME280;69652;51.864;-2.246;2023-11-21T06:21:38;102126.09;;;10.12;76.98
80333;BME280;69652;51.864;-2.246;2023-11-21T06:24:04;102128.56;;;10.13;76.47
80333;BME280;69652;51.864;-2.246;2023-11-21T06:26:29;102128.81;;;10.12;77.63
80333;BME280;69652;51.864;-2.246;2023-11-21T06:28:56;102136.69;;;10.13;77.10
80333;BME280;69652;51.864;-2.246;2023-11-21T06:31:22;102132.34;;;10.12;77.10
80333;BME280;69652;51.864;-2.246;2023-11-21T06:33:48;102145.91;;;10.12;76.78
80333;BME280;69652;51.864;-2.246;2023-11-21T06:36:13;102148.34;;;10.14;77.05
80333;BME280;69652;51.864;-2.246;2023-11-21T06:38:39;102151.06;;;10.14;76.45
80333;BME280;69652;51.864;-2.246;2023-11-21T06:41:06;102158.66;;;10.17;77.38
80333;BME280;69652;51.864;-2.246;2023-11-21T06:43:31;102154.03;;;10.18;76.60
80333;BME280;69652;51.864;-2.246;2023-11-21T06:45:57;102162.44;;;10.16;75.98
80333;BME280;69652;51.864;-2.246;2023-11-21T06:48:22;102165.47;;;10.14;76.80
80333;BME280;69652;51.864;-2.246;2023-11-21T06:50:48;102167.34;;;10.14;76.20
80333;BME280;69652;51.864;-2.246;2023-11-21T06:53:13;102163.81;;;10.13;76.09
80333;BME280;69652;51.864;-2.246;2023-11-21T06:55:39;102166.53;;;10.13;76.65
80333;BME280;69652;51.864;-2.246;2023-11-21T06:58:04;102174.66;;;10.13;76.81
80333;BME280;69652;51.864;-2.246;2023-11-21T07:00:30;102179.28;;;10.13;76.82
80333;BME280;69652;51.864;-2.246;2023-11-21T07:02:56;102181.44;;;10.16;76.82
80333;BME280;69652;51.864;-2.246;2023-11-21T07:05:22;102181.72;;;10.14;77.48
80333;BME280;69652;51.864;-2.246;2023-11-21T07:07:48;102182.81;;;10.13;77.77
80333;BME280;69652;51.864;-2.246;2023-11-21T07:10:14;102183.88;;;10.12;77.11
80333;BME280;69652;51.864;-2.246;2023-11-21T07:12:40;102182.25;;;10.11;77.24
80333;BME280;69652;51.864;-2.246;2023-11-21T07:15:06;102187.69;;;10.11;77.26
80333;BME280;69652;51.864;-2.246;2023-11-21T07:17:35;102199.34;;;10.12;76.39
80333;BME280;69652;51.864;-2.246;2023-11-21T07:20:01;102203.69;;;10.13;76.39
80333;BME280;69652;51.864;-2.246;2023-11-21T07:22:27;102201.00;;;10.13;77.68
80333;BME280;69652;51.864;-2.246;2023-11-21T07:24:52;102208.31;;;10.12;75.47
80333;BME280;69652;51.864;-2.246;2023-11-21T07:27:17;102214.00;;;10.11;76.95
80333;BME280;69652;51.864;-2.246;2023-11-21T07:29:43;102220.25;;;10.11;75.95
80333;BME280;69652;51.864;-2.246;2023-11-21T07:32:09;102224.59;;;10.12;76.97
80333;BME280;69652;51.864;-2.246;2023-11-21T07:34:35;102229.44;;;10.10;76.75
80333;BME280;69652;51.864;-2.246;2023-11-21T07:37:01;102234.63;;;10.12;76.85
80333;BME280;69652;51.864;-2.246;2023-11-21T07:39:27;102234.88;;;10.10;77.35
80333;BME280;69652;51.864;-2.246;2023-11-21T07:41:52;102234.38;;;10.13;77.02
80333;BME280;69652;51.864;-2.246;2023-11-21T07:44:17;102234.63;;;10.12;76.75
80333;BME280;69652;51.864;-2.246;2023-11-21T07:46:43;102249.28;;;10.16;76.85
80333;BME280;69652;51.864;-2.246;2023-11-21T07:49:09;102249.81;;;10.13;77.04
80333;BME280;69652;51.864;-2.246;2023-11-21T07:51:35;102249.56;;;10.14;76.92
80333;BME280;69652;51.864;-2.246;2023-11-21T07:54:00;102252.22;;;10.09;77.39
80333;BME280;69652;51.864;-2.246;2023-11-21T07:56:26;102259.84;;;10.12;77.62
80333;BME280;69652;51.864;-2.246;2023-11-21T07:58:51;102264.47;;;10.12;76.92
80333;BME280;69652;51.864;-2.246;2023-11-21T08:01:17;102259.03;;;10.12;77.49
80333;BME280;69652;51.864;-2.246;2023-11-21T08:03:42;102256.31;;;10.12;77.55
80333;BME280;69652;51.864;-2.246;2023-11-21T08:06:09;102250.09;;;10.11;77.40
80333;BME280;69652;51.864;-2.246;2023-11-21T08:08:34;102260.41;;;10.14;78.03
80333;BME280;69652;51.864;-2.246;2023-11-21T08:11:00;102248.19;;;10.17;77.42
80333;BME280;69652;51.864;-2.246;2023-11-21T08:13:28;102256.09;;;10.19;77.15
80333;BME280;69652;51.864;-2.246;2023-11-21T08:15:55;102261.75;;;10.17;76.76
80333;BME280;69652;51.864;-2.246;2023-11-21T08:18:21;102272.06;;;10.15;77.45
80333;BME280;69652;51.864;-2.246;2023-11-21T08:20:47;102261.75;;;10.17;78.12
80333;BME280;69652;51.864;-2.246;2023-11-21T08:23:16;102273.22;;;10.19;77.82
80333;BME280;69652;51.864;-2.246;2023-11-21T08:25:44;102281.91;;;10.21;77.12
80333;BME280;69652;51.864;-2.246;2023-11-21T08:28:10;102269.97;;;10.22;77.30
80333;BME280;69652;51.864;-2.246;2023-11-21T08:30:36;102291.16;;;10.25;77.07
80333;BME280;69652;51.864;-2.246;2023-11-21T08:33:01;102299.00;;;10.22;77.34
80333;BME280;69652;51.864;-2.246;2023-11-21T08:35:28;102288.91;;;10.17;76.57
80333;BME280;69652;51.864;-2.246;2023-11-21T08:37:53;102300.34;;;10.19;77.22
80333;BME280;69652;51.864;-2.246;2023-11-21T08:40:20;102306.38;;;10.26;77.41
80333;BME280;69652;51.864;-2.246;2023-11-21T08:42:46;102313.50;;;10.37;76.97
80333;BME280;69652;51.864;-2.246;2023-11-21T08:45:13;102318.13;;;10.42;77.42
80333;BME280;69652;51.864;-2.246;2023-11-21T08:47:39;102321.38;;;10.44;76.89
80333;BME280;69652;51.864;-2.246;2023-11-21T08:50:06;102334.97;;;10.44;76.15
80333;BME280;69652;51.864;-2.246;2023-11-21T08:52:33;102327.91;;;10.43;76.55
80333;BME280;69652;51.864;-2.246;2023-11-21T08:54:58;102336.03;;;10.43;76.83
80333;BME280;69652;51.864;-2.246;2023-11-21T08:57:28;102327.59;;;10.39;76.21
80333;BME280;69652;51.864;-2.246;2023-11-21T08:59:54;102328.41;;;10.35;76.56
80333;BME280;69652;51.864;-2.246;2023-11-21T09:02:23;102330.84;;;10.36;77.18
80333;BME280;69652;51.864;-2.246;2023-11-21T09:04:49;102340.34;;;10.39;76.41
80333;BME280;69652;51.864;-2.246;2023-11-21T09:07:14;102340.63;;;10.37;76.72
80333;BME280;69652;51.864;-2.246;2023-11-21T09:09:40;102354.00;;;10.49;76.66
80333;BME280;69652;51.864;-2.246;2023-11-21T09:12:06;102352.38;;;10.53;76.18
80333;BME280;69652;51.864;-2.246;2023-11-21T09:14:31;102351.03;;;10.56;76.48
80333;BME280;69652;51.864;-2.246;2023-11-21T09:16:57;102356.78;;;10.59;76.00
80333;BME280;69652;51.864;-2.246;2023-11-21T09:19:22;102360.88;;;10.67;76.20
80333;BME280;69652;51.864;-2.246;2023-11-21T09:21:47;102350.31;;;10.70;75.95
80333;BME280;69652;51.864;-2.246;2023-11-21T09:24:13;102354.63;;;10.66;75.54
80333;BME280;69652;51.864;-2.246;2023-11-21T09:26:38;102354.38;;;10.68;75.82
80333;BME280;69652;51.864;-2.246;2023-11-21T09:29:04;102363.06;;;10.70;75.63
80333;BME280;69652;51.864;-2.246;2023-11-21T09:31:29;102363.38;;;10.78;75.25
80333;BME280;69652;51.864;-2.246;2023-11-21T09:33:56;102362.84;;;10.81;74.97
80333;BME280;69652;51.864;-2.246;2023-11-21T09:36:22;102369.38;;;10.80;75.23
80333;BME280;69652;51.864;-2.246;2023-11-21T09:38:52;102378.31;;;10.76;75.77
80333;BME280;69652;51.864;-2.246;2023-11-21T09:41:34;102378.00;;;10.67;75.67
80333;BME280;69652;51.864;-2.246;2023-11-21T09:44:08;102380.16;;;10.65;75.55
80333;BME280;69652;51.864;-2.246;2023-11-21T09:46:37;102376.34;;;10.66;75.45
80333;BME280;69652;51.864;-2.246;2023-11-21T09:49:06;102388.28;;;10.65;76.08
80333;BME280;69652;51.864;-2.246;2023-11-21T09:51:34;102383.69;;;10.66;75.58
80333;BME280;69652;51.864;-2.246;2023-11-21T09:54:04;102386.13;;;10.67;75.23
80333;BME280;69652;51.864;-2.246;2023-11-21T09:56:34;102386.44;;;10.71;75.39
80333;BME280;69652;51.864;-2.246;2023-11-21T09:59:01;102389.72;;;10.73;75.90
80333;BME280;69652;51.864;-2.246;2023-11-21T10:01:35;102395.72;;;10.80;75.78
80333;BME280;69652;51.864;-2.246;2023-11-21T10:04:02;102403.91;;;10.85;75.39
80333;BME280;69652;51.864;-2.246;2023-11-21T10:06:28;102399.81;;;10.82;75.41
80333;BME280;69652;51.864;-2.246;2023-11-21T10:08:56;102390.31;;;10.85;75.40
80333;BME280;69652;51.864;-2.246;2023-11-21T10:11:27;102406.88;;;10.83;74.77
80333;BME280;69652;51.864;-2.246;2023-11-21T10:13:55;102401.19;;;10.85;75.81
80333;BME280;69652;51.864;-2.246;2023-11-21T10:16:23;102405.81;;;10.90;74.57
80333;BME280;69652;51.864;-2.246;2023-11-21T10:18:52;102396.28;;;10.87;74.59
80333;BME280;69652;51.864;-2.246;2023-11-21T10:21:21;102402.31;;;10.94;74.69
80333;BME280;69652;51.864;-2.246;2023-11-21T10:23:47;102415.91;;;10.94;74.92
80333;BME280;69652;51.864;-2.246;2023-11-21T10:26:13;102416.41;;;10.91;74.96
80333;BME280;69652;51.864;-2.246;2023-11-21T10:29:02;102415.38;;;10.97;75.33
80333;BME280;69652;51.864;-2.246;2023-11-21T10:31:31;102430.88;;;11.02;75.16
80333;BME280;69652;51.864;-2.246;2023-11-21T10:34:18;102422.16;;;11.00;73.90
80333;BME280;69652;51.864;-2.246;2023-11-21T10:36:44;102436.81;;;10.99;74.23
80333;BME280;69652;51.864;-2.246;2023-11-21T10:39:13;102427.84;;;10.93;75.01
80333;BME280;69652;51.864;-2.246;2023-11-21T10:41:44;102437.31;;;10.91;74.90
80333;BME280;69652;51.864;-2.246;2023-11-21T10:44:10;102453.06;;;10.89;75.15
80333;BME280;69652;51.864;-2.246;2023-11-21T10:46:36;102442.75;;;10.85;74.68
80333;BME280;69652;51.864;-2.246;2023-11-21T10:49:01;102453.63;;;10.91;74.49
80333;BME280;69652;51.864;-2.246;2023-11-21T10:51:27;102461.00;;;10.95;74.80
80333;BME280;69652;51.864;-2.246;2023-11-21T10:53:54;102462.91;;;10.95;74.46
80333;BME280;69652;51.864;-2.246;2023-11-21T10:56:23;102464.81;;;10.99;74.70
80333;BME280;69652;51.864;-2.246;2023-11-21T10:58:49;102470.28;;;11.04;74.63
80333;BME280;69652;51.864;-2.246;2023-11-21T11:01:17;102469.72;;;11.02;74.50
80333;BME280;69652;51.864;-2.246;2023-11-21T11:03:44;102474.34;;;11.02;74.43
80333;BME280;69652;51.864;-2.246;2023-11-21T11:06:10;102478.94;;;11.01;75.33
80333;BME280;69652;51.864;-2.246;2023-11-21T11:08:37;102471.91;;;11.05;75.44
80333;BME280;69652;51.864;-2.246;2023-11-21T11:11:05;102472.97;;;10.99;74.97
80333;BME280;69652;51.864;-2.246;2023-11-21T11:13:31;102484.38;;;11.01;74.43
80333;BME280;69652;51.864;-2.246;2023-11-21T11:16:01;102480.03;;;10.95;75.25
80333;BME280;69652;51.864;-2.246;2023-11-21T11:18:32;102476.50;;;11.00;75.05
80333;BME280;69652;51.864;-2.246;2023-11-21T11:21:20;102471.88;;;11.00;74.82
80333;BME280;69652;51.864;-2.246;2023-11-21T11:24:05;102474.06;;;11.03;74.84
80333;BME280;69652;51.864;-2.246;2023-11-21T11:26:47;102481.09;;;10.99;75.13
80333;BME280;69652;51.864;-2.246;2023-11-21T11:35:04;102496.88;;;10.97;75.05
80333;BME280;69652;51.864;-2.246;2023-11-21T11:37:32;102489.81;;;10.96;75.55
80333;BME280;69652;51.864;-2.246;2023-11-21T11:39:58;102498.22;;;10.95;75.54
80333;BME280;69652;51.864;-2.246;2023-11-21T11:42:26;102500.94;;;11.00;75.18
80333;BME280;69652;51.864;-2.246;2023-11-21T11:44:52;102504.72;;;10.94;74.53
80333;BME280;69652;51.864;-2.246;2023-11-21T11:47:25;102513.09;;;10.87;75.95
80333;BME280;69652;51.864;-2.246;2023-11-21T11:52:41;102522.09;;;10.93;75.14
80333;BME280;69652;51.864;-2.246;2023-11-21T11:55:08;102533.69;;;11.20;74.96
80333;BME280;69652;51.864;-2.246;2023-11-21T11:57:38;102528.38;;;11.40;74.36
80333;BME280;69652;51.864;-2.246;2023-11-21T12:00:11;102530.38;;;11.70;72.70
80333;BME280;69652;51.864;-2.246;2023-11-21T12:02:40;102533.66;;;11.72;73.37
80333;BME280;69652;51.864;-2.246;2023-11-21T12:05:12;102536.75;;;11.96;72.24
80333;BME280;69652;51.864;-2.246;2023-11-21T12:07:51;102530.81;;;12.09;72.60
80333;BME280;69652;51.864;-2.246;2023-11-21T12:10:22;102532.47;;;12.15;71.70
80333;BME280;69652;51.864;-2.246;2023-11-21T12:12:51;102526.47;;;12.23;71.75
80333;BME280;69652;51.864;-2.246;2023-11-21T12:15:20;102535.75;;;12.33;71.00
80333;BME280;69652;51.864;-2.246;2023-11-21T12:17:46;102534.63;;;12.28;71.74
80333;BME280;69652;51.864;-2.246;2023-11-21T12:20:13;102553.38;;;12.00;71.97
80333;BME280;69652;51.864;-2.246;2023-11-21T12:23:00;102543.03;;;11.91;73.31
80333;BME280;69652;51.864;-2.246;2023-11-21T12:25:30;102540.53;;;11.85;72.48
80333;BME280;69652;51.864;-2.246;2023-11-21T12:28:00;102552.78;;;11.87;73.41
80333;BME280;69652;51.864;-2.246;2023-11-21T12:30:27;102556.59;;;11.86;72.98
80333;BME280;69652;51.864;-2.246;2023-11-21T12:33:03;102554.59;;;11.67;74.21
80333;BME280;69652;51.864;-2.246;2023-11-21T12:35:33;102561.13;;;11.66;73.82
80333;BME280;69652;51.864;-2.246;2023-11-21T12:38:00;102567.63;;;11.65;75.13
80333;BME280;69652;51.864;-2.246;2023-11-21T12:40:28;102573.09;;;11.65;74.81
80333;BME280;69652;51.864;-2.246;2023-11-21T12:42:56;102574.19;;;11.74;74.46
80333;BME280;69652;51.864;-2.246;2023-11-21T12:45:23;102576.44;;;11.77;74.26
80333;BME280;69652;51.864;-2.246;2023-11-21T12:48:00;102566.00;;;11.69;74.32